sensor_id;sensor_type;location;lat;lon;timestamp;pressure;altitude;pressure_sealevel;temperature
15079;BMP180;6932;51.438;5.470;2024-01-16T00:01:46;100521.00;;;8.00
15079;BMP180;6932;51.438;5.470;2024-01-16T00:04:12;100520.00;;;8.00
15079;BMP180;6932;51.438;5.470;2024-01-16T00:06:41;100523.00;;;8.00
15079;BMP180;6932;51.438;5.470;2024-01-16T00:09:08;100512.00;;;8.00
15079;BMP180;6932;51.438;5.470;2024-01-16T00:11:40;100510.00;;;8.00
15079;BMP180;6932;51.438;5.470;2024-01-16T00:14:06;100517.00;;;8.00
15079;BMP180;6932;51.438;5.470;2024-01-16T00:16:32;100521.00;;;8.00
15079;BMP180;6932;51.438;5.470;2024-01-16T00:18:58;100520.00;;;8.00
15079;BMP180;6932;51.438;5.470;2024-01-16T00:21:24;100539.00;;;8.00
15079;BMP180;6932;51.438;5.470;2024-01-16T00:23:49;100525.00;;;8.00
15079;BMP180;6932;51.438;5.470;2024-01-16T00:26:22;100518.00;;;7.90
15079;BMP180;6932;51.438;5.470;2024-01-16T00:28:48;100527.00;;;8.00
15079;BMP180;6932;51.438;5.470;2024-01-16T00:31:14;100518.00;;;8.00
15079;BMP180;6932;51.438;5.470;2024-01-16T00:33:40;100533.00;;;8.00
15079;BMP180;6932;51.438;5.470;2024-01-16T00:36:06;100532.00;;;8.00
15079;BMP180;6932;51.438;5.470;2024-01-16T00:38:35;100528.00;;;8.00
15079;BMP180;6932;51.438;5.470;2024-01-16T00:41:01;100542.00;;;8.00
15079;BMP180;6932;51.438;5.470;2024-01-16T00:43:26;100534.00;;;8.00
15079;BMP180;6932;51.438;5.470;2024-01-16T00:45:52;100534.00;;;8.00
15079;BMP180;6932;51.438;5.470;2024-01-16T00:48:18;100540.00;;;8.00
15079;BMP180;6932;51.438;5.470;2024-01-16T00:50:46;100541.00;;;8.00
15079;BMP180;6932;51.438;5.470;2024-01-16T00:53:16;100547.00;;;8.00
15079;BMP180;6932;51.438;5.470;2024-01-16T00:55:42;100534.00;;;8.00
15079;BMP180;6932;51.438;5.470;2024-01-16T00:58:08;100536.00;;;8.00
15079;BMP180;6932;51.438;5.470;2024-01-16T01:00:33;100530.00;;;8.00
15079;BMP180;6932;51.438;5.470;2024-01-16T01:03:00;100537.00;;;8.00
15079;BMP180;6932;51.438;5.470;2024-01-16T01:05:26;100533.00;;;8.10
15079;BMP180;6932;51.438;5.470;2024-01-16T01:07:57;100537.00;;;8.00
15079;BMP180;6932;51.438;5.470;2024-01-16T01:10:23;100516.00;;;8.00
15079;BMP180;6932;51.438;5.470;2024-01-16T01:12:50;100530.00;;;8.10
15079;BMP180;6932;51.438;5.470;2024-01-16T01:15:17;100521.00;;;8.10
15079;BMP180;6932;51.438;5.470;2024-01-16T01:17:43;100531.00;;;8.10
15079;BMP180;6932;51.438;5.470;2024-01-16T01:20:09;100536.00;;;8.10
15079;BMP180;6932;51.438;5.470;2024-01-16T01:22:37;100531.00;;;8.10
15079;BMP180;6932;51.438;5.470;2024-01-16T01:25:04;100531.00;;;8.10
15079;BMP180;6932;51.438;5.470;2024-01-16T01:27:30;100540.00;;;8.10
15079;BMP180;6932;51.438;5.470;2024-01-16T01:29:55;100538.00;;;8.10
15079;BMP180;6932;51.438;5.470;2024-01-16T01:32:21;100537.00;;;8.10
15079;BMP180;6932;51.438;5.470;2024-01-16T01:34:47;100531.00;;;8.10
15079;BMP180;6932;51.438;5.470;2024-01-16T01:37:13;100548.00;;;8.10
15079;BMP180;6932;51.438;5.470;2024-01-16T01:39:39;100538.00;;;8.10
15079;BMP180;6932;51.438;5.470;2024-01-16T01:42:05;100526.00;;;8.10
15079;BMP180;6932;51.438;5.470;2024-01-16T01:44:31;100525.00;;;8.10
15079;BMP180;6932;51.438;5.470;2024-01-16T01:46:57;100531.00;;;8.10
15079;BMP180;6932;51.438;5.470;2024-01-16T01:49:25;100533.00;;;8.10
15079;BMP180;6932;51.438;5.470;2024-01-16T01:51:52;100536.00;;;8.10
15079;BMP180;6932;51.438;5.470;2024-01-16T01:54:19;100540.00;;;8.10
15079;BMP180;6932;51.438;5.470;2024-01-16T01:56:47;100540.00;;;8.10
15079;BMP180;6932;51.438;5.470;2024-01-16T01:59:18;100535.00;;;8.10
15079;BMP180;6932;51.438;5.470;2024-01-16T02:01:49;100544.00;;;8.10
15079;BMP180;6932;51.438;5.470;2024-01-16T02:04:19;100539.00;;;8.10
15079;BMP180;6932;51.438;5.470;2024-01-16T02:06:45;100535.00;;;8.10
15079;BMP180;6932;51.438;5.470;2024-01-16T02:09:12;100541.00;;;8.10
15079;BMP180;6932;51.438;5.470;2024-01-16T02:11:42;100542.00;;;8.10
15079;BMP180;6932;51.438;5.470;2024-01-16T02:14:09;100545.00;;;8.10
15079;BMP180;6932;51.438;5.470;2024-01-16T02:16:41;100553.00;;;8.10
15079;BMP180;6932;51.438;5.470;2024-01-16T02:19:07;100561.00;;;8.10
15079;BMP180;6932;51.438;5.470;2024-01-16T02:21:47;100551.00;;;8.10
15079;BMP180;6932;51.438;5.470;2024-01-16T02:24:18;100561.00;;;8.10
15079;BMP180;6932;51.438;5.470;2024-01-16T02:26:45;100565.00;;;8.10
15079;BMP180;6932;51.438;5.470;2024-01-16T02:29:11;100562.00;;;8.10
15079;BMP180;6932;51.438;5.470;2024-01-16T02:31:36;100569.00;;;8.10
15079;BMP180;6932;51.438;5.470;2024-01-16T02:34:03;100569.00;;;8.10
15079;BMP180;6932;51.438;5.470;2024-01-16T02:36:30;100568.00;;;8.10
15079;BMP180;6932;51.438;5.470;2024-01-16T02:38:56;100561.00;;;8.10
15079;BMP180;6932;51.438;5.470;2024-01-16T02:41:22;100559.00;;;8.10
15079;BMP180;6932;51.438;5.470;2024-01-16T02:43:48;100558.00;;;8.10
15079;BMP180;6932;51.438;5.470;2024-01-16T02:46:14;100563.00;;;8.10
15079;BMP180;6932;51.438;5.470;2024-01-16T02:48:40;100560.00;;;8.10
15079;BMP180;6932;51.438;5.470;2024-01-16T02:51:08;100558.00;;;8.00
15079;BMP180;6932;51.438;5.470;2024-01-16T02:53:34;100556.00;;;8.00
15079;BMP180;6932;51.438;5.470;2024-01-16T02:56:00;100560.00;;;8.00
15079;BMP180;6932;51.438;5.470;2024-01-16T02:58:30;100562.00;;;8.00
15079;BMP180;6932;51.438;5.470;2024-01-16T03:00:57;100561.00;;;8.00
15079;BMP180;6932;51.438;5.470;2024-01-16T03:03:23;100562.00;;;8.00
15079;BMP180;6932;51.438;5.470;2024-01-16T03:05:50;100552.00;;;8.00
15079;BMP180;6932;51.438;5.470;2024-01-16T03:08:16;100558.00;;;8.00
15079;BMP180;6932;51.438;5.470;2024-01-16T03:10:41;100552.00;;;8.00
15079;BMP180;6932;51.438;5.470;2024-01-16T03:13:08;100555.00;;;7.90
15079;BMP180;6932;51.438;5.470;2024-01-16T03:15:33;100550.00;;;8.00
15079;BMP180;6932;51.438;5.470;2024-01-16T03:18:00;100560.00;;;8.00
15079;BMP180;6932;51.438;5.470;2024-01-16T03:20:27;100546.00;;;7.90
15079;BMP180;6932;51.438;5.470;2024-01-16T03:22:53;100548.00;;;7.90
15079;BMP180;6932;51.438;5.470;2024-01-16T03:25:19;100552.00;;;7.90
15079;BMP180;6932;51.438;5.470;2024-01-16T03:27:46;100558.00;;;7.90
15079;BMP180;6932;51.438;5.470;2024-01-16T03:30:12;100554.00;;;7.90
15079;BMP180;6932;51.438;5.470;2024-01-16T03:32:38;100551.00;;;7.90
15079;BMP180;6932;51.438;5.470;2024-01-16T03:35:05;100552.00;;;7.90
15079;BMP180;6932;51.438;5.470;2024-01-16T03:37:32;100549.00;;;7.90
15079;BMP180;6932;51.438;5.470;2024-01-16T03:39:57;100539.00;;;7.90
15079;BMP180;6932;51.438;5.470;2024-01-16T03:42:23;100541.00;;;7.90
15079;BMP180;6932;51.438;5.470;2024-01-16T03:44:49;100531.00;;;7.90
15079;BMP180;6932;51.438;5.470;2024-01-16T03:47:15;100534.00;;;7.90
15079;BMP180;6932;51.438;5.470;2024-01-16T03:49:41;100524.00;;;7.80
15079;BMP180;6932;51.438;5.470;2024-01-16T03:52:07;100532.00;;;7.80
15079;BMP180;6932;51.438;5.470;2024-01-16T03:54:33;100538.00;;;7.80
15079;BMP180;6932;51.438;5.470;2024-01-16T03:56:58;100534.00;;;7.80
15079;BMP180;6932;51.438;5.470;2024-01-16T03:59:24;100522.00;;;7.80
15079;BMP180;6932;51.438;5.470;2024-01-16T04:01:50;100520.00;;;7.70
15079;BMP180;6932;51.438;5.470;2024-01-16T04:04:16;100519.00;;;7.70
15079;BMP180;6932;51.438;5.470;2024-01-16T04:06:42;100525.00;;;7.70
15079;BMP180;6932;51.438;5.470;2024-01-16T04:09:08;100523.00;;;7.70
15079;BMP180;6932;51.438;5.470;2024-01-16T04:11:35;100513.00;;;7.70
15079;BMP180;6932;51.438;5.470;2024-01-16T04:14:01;100513.00;;;7.70
15079;BMP180;6932;51.438;5.470;2024-01-16T04:16:28;100495.00;;;7.70
15079;BMP180;6932;51.438;5.470;2024-01-16T04:18:53;100510.00;;;7.60
15079;BMP180;6932;51.438;5.470;2024-01-16T04:21:19;100503.00;;;7.60
15079;BMP180;6932;51.438;5.470;2024-01-16T04:23:45;100503.00;;;7.60
15079;BMP180;6932;51.438;5.470;2024-01-16T04:26:11;100489.00;;;7.60
15079;BMP180;6932;51.438;5.470;2024-01-16T04:28:37;100491.00;;;7.60
15079;BMP180;6932;51.438;5.470;2024-01-16T04:31:06;100485.00;;;7.60
15079;BMP180;6932;51.438;5.470;2024-01-16T04:33:32;100486.00;;;7.60
15079;BMP180;6932;51.438;5.470;2024-01-16T04:35:57;100493.00;;;7.60
15079;BMP180;6932;51.438;5.470;2024-01-16T04:38:23;100497.00;;;7.50
15079;BMP180;6932;51.438;5.470;2024-01-16T04:40:49;100493.00;;;7.50
15079;BMP180;6932;51.438;5.470;2024-01-16T04:43:15;100488.00;;;7.50
15079;BMP180;6932;51.438;5.470;2024-01-16T04:45:41;100490.00;;;7.50
15079;BMP180;6932;51.438;5.470;2024-01-16T04:48:07;100494.00;;;7.50
15079;BMP180;6932;51.438;5.470;2024-01-16T04:50:35;100496.00;;;7.50
15079;BMP180;6932;51.438;5.470;2024-01-16T04:53:02;100489.00;;;7.40
15079;BMP180;6932;51.438;5.470;2024-01-16T04:55:29;100506.00;;;7.40
15079;BMP180;6932;51.438;5.470;2024-01-16T04:57:55;100499.00;;;7.40
15079;BMP180;6932;51.438;5.470;2024-01-16T05:00:21;100502.00;;;7.40
15079;BMP180;6932;51.438;5.470;2024-01-16T05:02:47;100498.00;;;7.40
15079;BMP180;6932;51.438;5.470;2024-01-16T05:05:13;100498.00;;;7.40
15079;BMP180;6932;51.438;5.470;2024-01-16T05:07:40;100493.00;;;7.40
15079;BMP180;6932;51.438;5.470;2024-01-16T05:10:09;100495.00;;;7.30
15079;BMP180;6932;51.438;5.470;2024-01-16T05:12:36;100486.00;;;7.30
15079;BMP180;6932;51.438;5.470;2024-01-16T05:15:01;100480.00;;;7.30
15079;BMP180;6932;51.438;5.470;2024-01-16T05:17:27;100483.00;;;7.30
15079;BMP180;6932;51.438;5.470;2024-01-16T05:19:53;100469.00;;;7.30
15079;BMP180;6932;51.438;5.470;2024-01-16T05:22:19;100476.00;;;7.30
15079;BMP180;6932;51.438;5.470;2024-01-16T05:24:44;100477.00;;;7.30
15079;BMP180;6932;51.438;5.470;2024-01-16T05:27:10;100480.00;;;7.30
15079;BMP180;6932;51.438;5.470;2024-01-16T05:29:36;100475.00;;;7.30
15079;BMP180;6932;51.438;5.470;2024-01-16T05:32:05;100480.00;;;7.30
15079;BMP180;6932;51.438;5.470;2024-01-16T05:34:30;100480.00;;;7.20
15079;BMP180;6932;51.438;5.470;2024-01-16T05:36:56;100486.00;;;7.20
15079;BMP180;6932;51.438;5.470;2024-01-16T05:39:22;100477.00;;;7.20
15079;BMP180;6932;51.438;5.470;2024-01-16T05:41:47;100482.00;;;7.20
15079;BMP180;6932;51.438;5.470;2024-01-16T05:44:13;100476.00;;;7.20
15079;BMP180;6932;51.438;5.470;2024-01-16T05:46:39;100485.00;;;7.20
15079;BMP180;6932;51.438;5.470;2024-01-16T05:49:05;100480.00;;;7.20
15079;BMP180;6932;51.438;5.470;2024-01-16T05:51:30;100483.00;;;7.10
15079;BMP180;6932;51.438;5.470;2024-01-16T05:53:56;100476.00;;;7.10
15079;BMP180;6932;51.438;5.470;2024-01-16T05:56:22;100472.00;;;7.10
15079;BMP180;6932;51.438;5.470;2024-01-16T05:58:48;100470.00;;;7.10
15079;BMP180;6932;51.438;5.470;2024-01-16T06:01:14;100465.00;;;7.10
15079;BMP180;6932;51.438;5.470;2024-01-16T06:03:40;100464.00;;;7.10
15079;BMP180;6932;51.438;5.470;2024-01-16T06:06:07;100460.00;;;7.10
15079;BMP180;6932;51.438;5.470;2024-01-16T06:08:33;100459.00;;;7.10
15079;BMP180;6932;51.438;5.470;2024-01-16T06:10:59;100464.00;;;7.10
15079;BMP180;6932;51.438;5.470;2024-01-16T06:13:25;100456.00;;;7.00
15079;BMP180;6932;51.438;5.470;2024-01-16T06:15:51;100456.00;;;7.00
15079;BMP180;6932;51.438;5.470;2024-01-16T06:18:17;100465.00;;;7.00
15079;BMP180;6932;51.438;5.470;2024-01-16T06:20:43;100455.00;;;7.00
15079;BMP180;6932;51.438;5.470;2024-01-16T06:23:08;100450.00;;;7.00
15079;BMP180;6932;51.438;5.470;2024-01-16T06:25:34;100456.00;;;7.00
15079;BMP180;6932;51.438;5.470;2024-01-16T06:28:00;100449.00;;;7.00
15079;BMP180;6932;51.438;5.470;2024-01-16T06:30:26;100458.00;;;7.00
15079;BMP180;6932;51.438;5.470;2024-01-16T06:32:51;100454.00;;;6.90
15079;BMP180;6932;51.438;5.470;2024-01-16T06:35:17;100457.00;;;6.90
15079;BMP180;6932;51.438;5.470;2024-01-16T06:37:43;100460.00;;;6.90
15079;BMP180;6932;51.438;5.470;2024-01-16T06:40:10;100457.00;;;6.90
15079;BMP180;6932;51.438;5.470;2024-01-16T06:42:35;100456.00;;;6.90
15079;BMP180;6932;51.438;5.470;2024-01-16T06:45:03;100453.00;;;6.90
15079;BMP180;6932;51.438;5.470;2024-01-16T06:47:28;100461.00;;;6.90
15079;BMP180;6932;51.438;5.470;2024-01-16T06:49:54;100464.00;;;6.90
15079;BMP180;6932;51.438;5.470;2024-01-16T06:52:20;100462.00;;;6.90
15079;BMP180;6932;51.438;5.470;2024-01-16T06:54:46;100465.00;;;6.90
15079;BMP180;6932;51.438;5.470;2024-01-16T06:57:11;100468.00;;;6.90
15079;BMP180;6932;51.438;5.470;2024-01-16T06:59:37;100472.00;;;6.80
15079;BMP180;6932;51.438;5.470;2024-01-16T07:02:03;100480.00;;;6.80
15079;BMP180;6932;51.438;5.470;2024-01-16T07:04:29;100472.00;;;6.80
15079;BMP180;6932;51.438;5.470;2024-01-16T07:06:55;100484.00;;;6.80
15079;BMP180;6932;51.438;5.470;2024-01-16T07:09:21;100492.00;;;6.80
15079;BMP180;6932;51.438;5.470;2024-01-16T07:11:47;100476.00;;;6.80
15079;BMP180;6932;51.438;5.470;2024-01-16T07:14:13;100475.00;;;6.80
15079;BMP180;6932;51.438;5.470;2024-01-16T07:16:39;100473.00;;;6.80
15079;BMP180;6932;51.438;5.470;2024-01-16T07:19:05;100484.00;;;6.80
15079;BMP180;6932;51.438;5.470;2024-01-16T07:21:31;100487.00;;;6.80
15079;BMP180;6932;51.438;5.470;2024-01-16T07:23:57;100482.00;;;6.80
15079;BMP180;6932;51.438;5.470;2024-01-16T07:26:23;100487.00;;;6.80
15079;BMP180;6932;51.438;5.470;2024-01-16T07:28:49;100492.00;;;6.80
15079;BMP180;6932;51.438;5.470;2024-01-16T07:31:15;100500.00;;;6.80
15079;BMP180;6932;51.438;5.470;2024-01-16T07:33:42;100486.00;;;6.80
15079;BMP180;6932;51.438;5.470;2024-01-16T07:36:09;100483.00;;;6.80
15079;BMP180;6932;51.438;5.470;2024-01-16T07:38:35;100492.00;;;6.80
15079;BMP180;6932;51.438;5.470;2024-01-16T07:41:05;100489.00;;;6.80
15079;BMP180;6932;51.438;5.470;2024-01-16T07:43:31;100489.00;;;6.80
15079;BMP180;6932;51.438;5.470;2024-01-16T07:45:57;100485.00;;;6.80
15079;BMP180;6932;51.438;5.470;2024-01-16T07:48:23;100482.00;;;6.80
15079;BMP180;6932;51.438;5.470;2024-01-16T07:50:50;100489.00;;;6.80
15079;BMP180;6932;51.438;5.470;2024-01-16T07:53:15;100500.00;;;6.80
15079;BMP180;6932;51.438;5.470;2024-01-16T07:55:42;100507.00;;;6.80
15079;BMP180;6932;51.438;5.470;2024-01-16T07:58:11;100505.00;;;6.80
15079;BMP180;6932;51.438;5.470;2024-01-16T08:00:37;100510.00;;;6.80
15079;BMP180;6932;51.438;5.470;2024-01-16T08:03:04;100513.00;;;6.80
15079;BMP180;6932;51.438;5.470;2024-01-16T08:05:30;100514.00;;;6.80
15079;BMP180;6932;51.438;5.470;2024-01-16T08:07:57;100511.00;;;6.90
15079;BMP180;6932;51.438;5.470;2024-01-16T08:10:23;100515.00;;;6.80
15079;BMP180;6932;51.438;5.470;2024-01-16T08:12:49;100519.00;;;6.80
15079;BMP180;6932;51.438;5.470;2024-01-16T08:15:14;100503.00;;;6.80
15079;BMP180;6932;51.438;5.470;2024-01-16T08:17:40;100508.00;;;6.80
15079;BMP180;6932;51.438;5.470;2024-01-16T08:20:09;100508.00;;;6.80
15079;BMP180;6932;51.438;5.470;2024-01-16T08:22:38;100514.00;;;6.90
15079;BMP180;6932;51.438;5.470;2024-01-16T08:25:04;100508.00;;;6.90
15079;BMP180;6932;51.438;5.470;2024-01-16T08:27:31;100514.00;;;6.90
15079;BMP180;6932;51.438;5.470;2024-01-16T08:29:57;100524.00;;;6.90
15079;BMP180;6932;51.438;5.470;2024-01-16T08:32:22;100526.00;;;6.90
15079;BMP180;6932;51.438;5.470;2024-01-16T08:34:48;100527.00;;;6.90
15079;BMP180;6932;51.438;5.470;2024-01-16T08:37:14;100527.00;;;6.90
15079;BMP180;6932;51.438;5.470;2024-01-16T08:39:40;100527.00;;;6.90
15079;BMP180;6932;51.438;5.470;2024-01-16T08:42:05;100527.00;;;6.90
15079;BMP180;6932;51.438;5.470;2024-01-16T08:44:31;100528.00;;;6.90
15079;BMP180;6932;51.438;5.470;2024-01-16T08:46:57;100524.00;;;6.90
15079;BMP180;6932;51.438;5.470;2024-01-16T08:49:25;100521.00;;;6.90
15079;BMP180;6932;51.438;5.470;2024-01-16T08:51:50;100523.00;;;6.90
15079;BMP180;6932;51.438;5.470;2024-01-16T08:54:16;100525.00;;;6.90
15079;BMP180;6932;51.438;5.470;2024-01-16T08:56:42;100519.00;;;6.90
15079;BMP180;6932;51.438;5.470;2024-01-16T08:59:07;100516.00;;;7.00
15079;BMP180;6932;51.438;5.470;2024-01-16T09:01:33;100524.00;;;7.00
15079;BMP180;6932;51.438;5.470;2024-01-16T09:03:59;100508.00;;;7.00
15079;BMP180;6932;51.438;5.470;2024-01-16T09:06:25;100515.00;;;7.00
15079;BMP180;6932;51.438;5.470;2024-01-16T09:08:51;100508.00;;;7.00
15079;BMP180;6932;51.438;5.470;2024-01-16T09:11:17;100515.00;;;7.00
15079;BMP180;6932;51.438;5.470;2024-01-16T09:13:42;100526.00;;;7.00
15079;BMP180;6932;51.438;5.470;2024-01-16T09:16:09;100515.00;;;7.00
15079;BMP180;6932;51.438;5.470;2024-01-16T09:18:34;100524.00;;;7.00
15079;BMP180;6932;51.438;5.470;2024-01-16T09:21:00;100519.00;;;7.00
15079;BMP180;6932;51.438;5.470;2024-01-16T09:23:26;100506.00;;;7.00
15079;BMP180;6932;51.438;5.470;2024-01-16T09:25:51;100511.00;;;7.00
15079;BMP180;6932;51.438;5.470;2024-01-16T09:28:18;100514.00;;;7.10
15079;BMP180;6932;51.438;5.470;2024-01-16T09:30:44;100524.00;;;7.10
15079;BMP180;6932;51.438;5.470;2024-01-16T09:33:10;100511.00;;;7.10
15079;BMP180;6932;51.438;5.470;2024-01-16T09:35:36;100510.00;;;7.10
15079;BMP180;6932;51.438;5.470;2024-01-16T09:38:03;100510.00;;;7.10
15079;BMP180;6932;51.438;5.470;2024-01-16T09:40:30;100510.00;;;7.10
15079;BMP180;6932;51.438;5.470;2024-01-16T09:42:56;100504.00;;;7.10
15079;BMP180;6932;51.438;5.470;2024-01-16T09:45:24;100503.00;;;7.20
15079;BMP180;6932;51.438;5.470;2024-01-16T09:47:51;100502.00;;;7.20
15079;BMP180;6932;51.438;5.470;2024-01-16T09:50:19;100501.00;;;7.20
15079;BMP180;6932;51.438;5.470;2024-01-16T09:52:48;100506.00;;;7.20
15079;BMP180;6932;51.438;5.470;2024-01-16T09:55:15;100505.00;;;7.20
15079;BMP180;6932;51.438;5.470;2024-01-16T09:57:45;100503.00;;;7.20
15079;BMP180;6932;51.438;5.470;2024-01-16T10:00:12;100501.00;;;7.30
15079;BMP180;6932;51.438;5.470;2024-01-16T10:02:42;100497.00;;;7.30
15079;BMP180;6932;51.438;5.470;2024-01-16T10:05:10;100490.00;;;7.40
15079;BMP180;6932;51.438;5.470;2024-01-16T10:07:41;100494.00;;;7.50
15079;BMP180;6932;51.438;5.470;2024-01-16T10:10:10;100491.00;;;7.60
15079;BMP180;6932;51.438;5.470;2024-01-16T10:12:38;100495.00;;;7.80
15079;BMP180;6932;51.438;5.470;2024-01-16T10:15:07;100483.00;;;7.90
15079;BMP180;6932;51.438;5.470;2024-01-16T10:17:43;100483.00;;;8.00
15079;BMP180;6932;51.438;5.470;2024-01-16T10:20:10;100485.00;;;8.20
15079;BMP180;6932;51.438;5.470;2024-01-16T10:22:54;100425.00;;;8.30
15079;BMP180;6932;51.438;5.470;2024-01-16T10:25:20;100420.00;;;8.10
15079;BMP180;6932;51.438;5.470;2024-01-16T10:27:48;100426.00;;;7.80
15079;BMP180;6932;51.438;5.470;2024-01-16T10:30:14;100428.00;;;7.70
15079;BMP180;6932;51.438;5.470;2024-01-16T10:32:42;100413.00;;;7.50
15079;BMP180;6932;51.438;5.470;2024-01-16T10:35:13;100398.00;;;7.30
15079;BMP180;6932;51.438;5.470;2024-01-16T10:37:53;100383.00;;;7.20
15079;BMP180;6932;51.438;5.470;2024-01-16T10:40:21;100393.00;;;7.20
15079;BMP180;6932;51.438;5.470;2024-01-16T10:43:01;100392.00;;;7.20
15079;BMP180;6932;51.438;5.470;2024-01-16T10:45:29;100452.00;;;7.20
15079;BMP180;6932;51.438;5.470;2024-01-16T10:48:06;100459.00;;;7.50
15079;BMP180;6932;51.438;5.470;2024-01-16T10:50:34;100461.00;;;7.80
15079;BMP180;6932;51.438;5.470;2024-01-16T10:53:04;100461.00;;;8.20
15079;BMP180;6932;51.438;5.470;2024-01-16T10:55:53;100477.00;;;8.40
15079;BMP180;6932;51.438;5.470;2024-01-16T10:58:22;100462.00;;;8.60
15079;BMP180;6932;51.438;5.470;2024-01-16T11:00:54;100448.00;;;8.80
15079;BMP180;6932;51.438;5.470;2024-01-16T11:03:35;100445.00;;;9.00
15079;BMP180;6932;51.438;5.470;2024-01-16T11:06:06;100441.00;;;9.10
15079;BMP180;6932;51.438;5.470;2024-01-16T11:08:37;100448.00;;;9.20
15079;BMP180;6932;51.438;5.470;2024-01-16T11:11:04;100438.00;;;9.30
15079;BMP180;6932;51.438;5.470;2024-01-16T11:13:35;100447.00;;;9.50
15079;BMP180;6932;51.438;5.470;2024-01-16T11:16:05;100453.00;;;9.60
15079;BMP180;6932;51.438;5.470;2024-01-16T11:18:33;100446.00;;;9.70
15079;BMP180;6932;51.438;5.470;2024-01-16T11:21:02;100446.00;;;9.70
15079;BMP180;6932;51.438;5.470;2024-01-16T11:23:29;100443.00;;;9.90
15079;BMP180;6932;51.438;5.470;2024-01-16T11:25:55;100438.00;;;9.90
15079;BMP180;6932;51.438;5.470;2024-01-16T11:28:28;100441.00;;;9.90
15079;BMP180;6932;51.438;5.470;2024-01-16T11:30:56;100430.00;;;10.00
15079;BMP180;6932;51.438;5.470;2024-01-16T11:35:57;100448.00;;;10.10
15079;BMP180;6932;51.438;5.470;2024-01-16T11:38:25;100448.00;;;10.10
15079;BMP180;6932;51.438;5.470;2024-01-16T11:40:55;100441.00;;;10.20
15079;BMP180;6932;51.438;5.470;2024-01-16T11:46:06;100419.00;;;10.20
15079;BMP180;6932;51.438;5.470;2024-01-16T11:48:33;100428.00;;;10.30
15079;BMP180;6932;51.438;5.470;2024-01-16T11:50:59;100435.00;;;10.30
15079;BMP180;6932;51.438;5.470;2024-01-16T11:53:32;100430.00;;;10.30
15079;BMP180;6932;51.438;5.470;2024-01-16T11:56:35;100423.00;;;10.30
15079;BMP180;6932;51.438;5.470;2024-01-16T12:05:02;100413.00;;;10.30
15079;BMP180;6932;51.438;5.470;2024-01-16T12:07:47;100413.00;;;10.30
15079;BMP180;6932;51.438;5.470;2024-01-16T12:10:16;100410.00;;;10.40
15079;BMP180;6932;51.438;5.470;2024-01-16T12:12:42;100406.00;;;10.40
15079;BMP180;6932;51.438;5.470;2024-01-16T12:15:20;100400.00;;;10.30
15079;BMP180;6932;51.438;5.470;2024-01-16T12:17:58;100408.00;;;10.30
15079;BMP180;6932;51.438;5.470;2024-01-16T12:20:27;100393.00;;;10.30
15079;BMP180;6932;51.438;5.470;2024-01-16T12:23:02;100393.00;;;10.30
15079;BMP180;6932;51.438;5.470;2024-01-16T12:25:31;100379.00;;;10.30
15079;BMP180;6932;51.438;5.470;2024-01-16T12:28:04;100387.00;;;10.30
15079;BMP180;6932;51.438;5.470;2024-01-16T12:30:35;100385.00;;;10.30
15079;BMP180;6932;51.438;5.470;2024-01-16T12:33:10;100383.00;;;10.30
15079;BMP180;6932;51.438;5.470;2024-01-16T12:35:40;100382.00;;;10.40
15079;BMP180;6932;51.438;5.470;2024-01-16T12:38:08;100369.00;;;10.40
15079;BMP180;6932;51.438;5.470;2024-01-16T12:40:36;100381.00;;;10.40
15079;BMP180;6932;51.438;5.470;2024-01-16T12:43:03;100382.00;;;10.30
15079;BMP180;6932;51.438;5.470;2024-01-16T12:45:30;100375.00;;;10.30
15079;BMP180;6932;51.438;5.470;2024-01-16T12:47:57;100387.00;;;10.40
15079;BMP180;6932;51.438;5.470;2024-01-16T12:50:27;100381.00;;;10.40
15079;BMP180;6932;51.438;5.470;2024-01-16T12:53:09;100386.00;;;10.30
15079;BMP180;6932;51.438;5.470;2024-01-16T12:55:40;100380.00;;;10.20
15079;BMP180;6932;51.438;5.470;2024-01-16T12:58:22;100382.00;;;10.20
15079;BMP180;6932;51.438;5.470;2024-01-16T13:00:52;100377.00;;;10.20
15079;BMP180;6932;51.438;5.470;2024-01-16T13:03:21;100376.00;;;10.20
15079;BMP180;6932;51.438;5.470;2024-01-16T13:05:56;100369.00;;;10.10
15079;BMP180;6932;51.438;5.470;2024-01-16T13:08:23;100370.00;;;10.10
15079;BMP180;6932;51.438;5.470;2024-01-16T13:11:08;100362.00;;;10.00
15079;BMP180;6932;51.438;5.470;2024-01-16T13:13:37;100356.00;;;10.10
15079;BMP180;6932;51.438;5.470;2024-01-16T13:16:05;100353.00;;;10.10
15079;BMP180;6932;51.438;5.470;2024-01-16T13:18:34;100346.00;;;10.10
15079;BMP180;6932;51.438;5.470;2024-01-16T13:21:01;100347.00;;;10.10
15079;BMP180;6932;51.438;5.470;2024-01-16T13:23:28;100353.00;;;10.10
15079;BMP180;6932;51.438;5.470;2024-01-16T13:25:56;100352.00;;;10.00
15079;BMP180;6932;51.438;5.470;2024-01-16T13:28:23;100347.00;;;10.00
15079;BMP180;6932;51.438;5.470;2024-01-16T13:30:50;100356.00;;;10.00
15079;BMP180;6932;51.438;5.470;2024-01-16T13:33:16;100344.00;;;10.00
15079;BMP180;6932;51.438;5.470;2024-01-16T13:35:44;100346.00;;;9.90
15079;BMP180;6932;51.438;5.470;2024-01-16T13:38:12;100352.00;;;9.90
15079;BMP180;6932;51.438;5.470;2024-01-16T13:40:39;100337.00;;;9.90
15079;BMP180;6932;51.438;5.470;2024-01-16T13:43:04;100341.00;;;9.80
15079;BMP180;6932;51.438;5.470;2024-01-16T13:45:32;100334.00;;;9.80
15079;BMP180;6932;51.438;5.470;2024-01-16T13:47:59;100343.00;;;9.80
15079;BMP180;6932;51.438;5.470;2024-01-16T13:50:26;100325.00;;;9.80
15079;BMP180;6932;51.438;5.470;2024-01-16T13:52:52;100326.00;;;9.70
15079;BMP180;6932;51.438;5.470;2024-01-16T13:55:20;100321.00;;;9.70
15079;BMP180;6932;51.438;5.470;2024-01-16T13:57:46;100318.00;;;9.70
15079;BMP180;6932;51.438;5.470;2024-01-16T14:00:14;100314.00;;;9.70
15079;BMP180;6932;51.438;5.470;2024-01-16T14:02:48;100312.00;;;9.70
15079;BMP180;6932;51.438;5.470;2024-01-16T14:05:19;100317.00;;;9.70
15079;BMP180;6932;51.438;5.470;2024-01-16T14:07:47;100320.00;;;9.70
15079;BMP180;6932;51.438;5.470;2024-01-16T14:10:17;100330.00;;;9.70
15079;BMP180;6932;51.438;5.470;2024-01-16T14:12:44;100326.00;;;9.70
15079;BMP180;6932;51.438;5.470;2024-01-16T14:15:16;100326.00;;;9.70
15079;BMP180;6932;51.438;5.470;2024-01-16T14:17:47;100330.00;;;9.60
15079;BMP180;6932;51.438;5.470;2024-01-16T14:20:15;100324.00;;;9.60
15079;BMP180;6932;51.438;5.470;2024-01-16T14:22:42;100320.00;;;9.60
15079;BMP180;6932;51.438;5.470;2024-01-16T14:25:12;100310.00;;;9.60
15079;BMP180;6932;51.438;5.470;2024-01-16T14:27:41;100302.00;;;9.60
15079;BMP180;6932;51.438;5.470;2024-01-16T14:30:13;100310.00;;;9.70
15079;BMP180;6932;51.438;5.470;2024-01-16T14:32:44;100308.00;;;9.60